Time;durP1;ratioP1;P1;durP2;ratioP2;P2;SDS_P1;SDS_P2;PMS_P1;PMS_P2;Temp;Humidity;BMP_temperature;BMP_pressure;BME280_temperature;BME280_humidity;BME280_pressure;Samples;Min_cycle;Max_cycle;Signal;HPM_P1;HPM_P2
2023/01/21 00:01:00;;;;;;;14.65;3.33;;;;;;;-146.73;100.00;56421.06;6186155;23;20076;-93
2023/01/21 00:03:33;;;;;;;12.55;3.40;;;;;;;-146.73;100.00;56421.06;6184399;23;20447;-94
2023/01/21 00:06:13;;;;;;;12.27;3.45;;;;;;;-146.73;100.00;56421.06;6185570;23;20347;-94
2023/01/21 00:08:40;;;;;;;15.20;3.78;;;;;;;-146.73;100.00;56421.06;6184227;23;20721;-93
2023/01/21 00:11:13;;;;;;;16.00;3.65;;;;;;;-146.73;100.00;56421.06;6185423;23;20008;-95
2023/01/21 00:13:39;;;;;;;15.23;3.90;;;;;;;-146.73;100.00;56421.06;6185377;23;20088;-93
2023/01/21 00:16:05;;;;;;;13.70;3.53;;;;;;;-146.73;100.00;56421.06;6184769;23;20044;-96
2023/01/21 00:18:32;;;;;;;13.18;3.80;;;;;;;-146.73;100.00;56421.06;6184767;23;20029;-95
2023/01/21 00:21:03;;;;;;;13.52;3.92;;;;;;;-146.73;100.00;56421.06;6186723;23;20017;-93
2023/01/21 00:23:31;;;;;;;14.82;3.95;;;;;;;-146.73;100.00;56421.06;6186629;23;20009;-94
2023/01/21 00:26:07;;;;;;;11.18;3.28;;;;;;;-146.73;100.00;56421.06;6187596;23;20095;-93
2023/01/21 00:28:35;;;;;;;13.93;3.45;;;;;;;-146.73;100.00;56421.06;6190215;23;20008;-93
2023/01/21 00:31:03;;;;;;;16.80;3.90;;;;;;;-146.73;100.00;56421.06;6188244;23;20028;-96
2023/01/21 00:33:32;;;;;;;11.55;3.40;;;;;;;-146.73;100.00;56421.06;6188862;23;20374;-94
2023/01/21 00:36:10;;;;;;;15.10;4.05;;;;;;;-146.73;100.00;56421.06;6188336;23;20043;-95
2023/01/21 00:38:37;;;;;;;12.00;3.67;;;;;;;-146.73;100.00;56421.06;6189023;23;20013;-96
2023/01/21 00:41:09;;;;;;;12.45;3.65;;;;;;;-146.73;100.00;56421.06;6189564;23;20008;-94
2023/01/21 00:43:35;;;;;;;10.23;3.28;;;;;;;-146.73;100.00;56421.06;6190556;23;20015;-93
2023/01/21 00:46:05;;;;;;;12.13;3.50;;;;;;;-146.73;100.00;56421.06;6190501;23;20439;-94
2023/01/21 00:48:33;;;;;;;13.48;3.25;;;;;;;-146.73;100.00;56421.06;6191954;23;19997;-93
2023/01/21 00:51:02;;;;;;;10.07;3.00;;;;;;;-146.73;100.00;56421.06;6193571;23;20017;-92
2023/01/21 00:53:32;;;;;;;11.50;3.03;;;;;;;-146.73;100.00;56421.06;6196763;23;20016;-94
2023/01/21 00:56:06;;;;;;;12.02;3.33;;;;;;;-146.73;100.00;56421.06;6198149;23;20008;-93
2023/01/21 00:58:32;;;;;;;11.15;2.95;;;;;;;-146.73;100.00;56421.06;6200590;23;20064;-93
2023/01/21 01:01:12;;;;;;;13.70;3.10;;;;;;;-146.73;100.00;56421.06;6196337;23;20036;-93
2023/01/21 01:03:42;;;;;;;10.80;3.10;;;;;;;-146.73;100.00;56421.06;6195487;23;20075;-95
2023/01/21 01:06:17;;;;;;;13.45;3.28;;;;;;;-146.73;100.00;56421.06;6192868;23;20483;-92
2023/01/21 01:08:51;;;;;;;13.73;3.40;;;;;;;-146.73;100.00;56421.06;6188873;23;20060;-94
2023/01/21 01:11:20;;;;;;;19.70;3.53;;;;;;;-146.73;100.00;56421.06;6186250;23;20021;-93
2023/01/21 01:13:46;;;;;;;10.13;3.08;;;;;;;-146.73;100.00;56421.06;6185247;23;20028;-95
2023/01/21 01:16:14;;;;;;;14.32;3.25;;;;;;;-146.73;100.00;56421.06;6184904;23;20001;-96
2023/01/21 01:18:40;;;;;;;14.13;3.53;;;;;;;-146.73;100.00;56421.06;6183974;23;20406;-94
2023/01/21 01:21:11;;;;;;;13.15;3.63;;;;;;;-146.73;100.00;56421.06;6184093;23;20599;-93
2023/01/21 01:23:39;;;;;;;16.52;4.03;;;;;;;-146.73;100.00;56421.06;6183943;23;20012;-93
2023/01/21 01:26:06;;;;;;;14.40;3.83;;;;;;;-146.73;100.00;56421.06;6183278;23;20473;-96
2023/01/21 01:28:33;;;;;;;17.27;4.28;;;;;;;-146.73;100.00;56421.06;6183548;23;20011;-95
2023/01/21 01:31:07;;;;;;;16.13;3.92;;;;;;;-146.73;100.00;56421.06;6183374;23;20337;-96
2023/01/21 01:33:33;;;;;;;13.50;3.55;;;;;;;-146.73;100.00;56421.06;6183847;23;20015;-93
2023/01/21 01:36:19;;;;;;;14.02;3.70;;;;;;;-146.73;100.00;56421.06;6183580;23;20116;-95
2023/01/21 01:38:45;;;;;;;13.85;3.72;;;;;;;-146.73;100.00;56421.06;6186575;23;20083;-94
2023/01/21 01:41:19;;;;;;;16.27;3.90;;;;;;;-146.73;100.00;56421.06;6184693;23;20013;-96
2023/01/21 01:44:02;;;;;;;13.60;3.55;;;;;;;-146.73;100.00;56421.06;6185575;23;20009;-95
2023/01/21 01:46:30;;;;;;;14.52;4.45;;;;;;;-146.73;100.00;56421.06;6184775;23;20009;-94
2023/01/21 01:49:01;;;;;;;10.68;3.92;;;;;;;-146.73;100.00;56421.06;6185261;23;20089;-93
2023/01/21 01:51:52;;;;;;;19.40;4.38;;;;;;;-146.73;100.00;56421.06;6184666;23;20017;-92
2023/01/21 01:54:23;;;;;;;13.15;3.80;;;;;;;-146.73;100.00;56421.06;6184194;23;20013;-94
2023/01/21 01:56:54;;;;;;;14.77;4.20;;;;;;;-146.73;100.00;56421.06;6184199;23;20053;-94
2023/01/21 01:59:28;;;;;;;13.40;4.40;;;;;;;-146.73;100.00;56421.06;6183264;23;20095;-93
2023/01/21 02:01:57;;;;;;;11.85;4.30;;;;;;;-146.73;100.00;56421.06;6183614;23;20032;-93
2023/01/21 02:04:28;;;;;;;13.00;4.32;;;;;;;-146.73;100.00;56421.06;6184126;23;20005;-93
2023/01/21 02:06:56;;;;;;;14.00;4.25;;;;;;;-146.73;100.00;56421.06;6180329;23;20009;-93
2023/01/21 02:09:28;;;;;;;14.07;4.30;;;;;;;-146.73;100.00;56421.06;6179637;23;20052;-93
2023/01/21 02:11:58;;;;;;;13.65;4.40;;;;;;;-146.73;100.00;56421.06;6181911;23;20040;-93
2023/01/21 02:14:28;;;;;;;14.70;4.88;;;;;;;-146.73;100.00;56421.06;6179783;23;20017;-94
2023/01/21 02:17:16;;;;;;;15.13;4.18;;;;;;;-146.73;100.00;56421.06;6179867;23;20012;-94
2023/01/21 02:20:00;;;;;;;17.25;4.43;;;;;;;-146.73;100.00;56421.06;6179810;23;20020;-94
2023/01/21 02:23:00;;;;;;;12.35;4.22;;;;;;;-146.73;100.00;56421.06;6180230;23;20469;-93
2023/01/21 02:26:19;;;;;;;15.73;5.32;;;;;;;-146.73;100.00;56421.06;6180188;23;20009;-94
2023/01/21 02:29:15;;;;;;;15.00;4.82;;;;;;;-146.73;100.00;56421.06;6125057;23;20017;-93
2023/01/21 02:32:08;;;;;;;17.00;5.53;;;;;;;-146.73;100.00;56421.06;6124490;23;20038;-94
2023/01/21 02:35:06;;;;;;;13.63;5.10;;;;;;;-146.73;100.00;56421.06;6125560;23;20041;-94
2023/01/21 02:37:53;;;;;;;18.67;5.13;;;;;;;-146.73;100.00;56421.06;6109723;23;20276;-93
2023/01/21 02:40:33;;;;;;;16.88;5.05;;;;;;;-146.73;100.00;56421.06;6126101;23;20041;-94
2023/01/21 02:43:17;;;;;;;15.18;4.95;;;;;;;-146.73;100.00;56421.06;6151585;23;20406;-93
2023/01/21 02:45:54;;;;;;;15.40;4.80;;;;;;;-146.73;100.00;56421.06;6125758;23;20076;-94
2023/01/21 02:48:32;;;;;;;17.05;5.50;;;;;;;-146.73;100.00;56421.06;6125563;23;20096;-94
2023/01/21 02:50:58;;;;;;;20.45;5.38;;;;;;;-146.73;100.00;56421.06;6126075;23;20017;-94
2023/01/21 02:53:32;;;;;;;13.60;4.63;;;;;;;-146.73;100.00;56421.06;6150741;23;20017;-94
2023/01/21 02:56:03;;;;;;;12.23;4.60;;;;;;;-146.73;100.00;56421.06;6125709;23;20441;-94
2023/01/21 02:58:35;;;;;;;14.55;5.05;;;;;;;-146.73;100.00;56421.06;6126513;23;20018;-93
2023/01/21 03:06:28;;;;;;;19.95;5.30;;;;;;;-146.73;100.00;56421.06;6117344;23;20404;-91
2023/01/21 03:09:26;;;;;;;18.02;5.07;;;;;;;-146.73;100.00;56421.06;6142874;23;20014;-90
2023/01/21 03:12:53;;;;;;;19.45;5.38;;;;;;;-146.73;100.00;56421.06;6138156;23;20285;-90
2023/01/21 03:18:39;;;;;;;24.23;5.25;;;;;;;-146.73;100.00;56421.06;6119590;23;20040;-91
2023/01/21 03:21:16;;;;;;;19.65;5.43;;;;;;;-146.73;100.00;56421.06;6117956;23;20030;-90
2023/01/21 03:23:57;;;;;;;16.02;5.28;;;;;;;-146.73;100.00;56421.06;6142652;23;20085;-91
2023/01/21 03:26:36;;;;;;;20.55;5.55;;;;;;;-146.73;100.00;56421.06;6117973;23;20009;-91
2023/01/21 03:29:08;;;;;;;11.82;4.43;;;;;;;-146.73;100.00;56421.06;6118892;23;20333;-91
2023/01/21 03:31:38;;;;;;;21.90;4.70;;;;;;;-146.73;100.00;56421.06;6122565;23;20002;-91
2023/01/21 03:34:10;;;;;;;19.17;5.47;;;;;;;-146.73;100.00;56421.06;6139833;23;20072;-91
2023/01/21 03:37:08;;;;;;;13.88;4.82;;;;;;;-146.73;100.00;56421.06;6138145;23;20025;-91
2023/01/21 03:39:51;;;;;;;18.80;5.53;;;;;;;-146.73;100.00;56421.06;6120623;23;20006;-91
2023/01/21 03:42:17;;;;;;;18.85;5.03;;;;;;;-146.73;100.00;56421.06;6143935;23;20162;-92
2023/01/21 03:44:44;;;;;;;15.30;5.07;;;;;;;-146.73;100.00;56421.06;6125399;23;20014;-90
2023/01/21 03:47:24;;;;;;;17.85;5.95;;;;;;;-146.73;100.00;56421.06;6139351;23;20009;-91
2023/01/21 03:49:50;;;;;;;16.25;4.88;;;;;;;-146.73;100.00;56421.06;6129472;23;20010;-91
2023/01/21 03:52:20;;;;;;;16.58;5.20;;;;;;;-146.73;100.00;56421.06;6121334;23;20006;-91
2023/01/21 03:54:46;;;;;;;14.77;5.32;;;;;;;-146.73;100.00;56421.06;6141407;23;20049;-90
2023/01/21 03:57:15;;;;;;;17.58;5.05;;;;;;;-146.73;100.00;56421.06;6117591;23;20096;-91
2023/01/21 03:59:41;;;;;;;13.68;4.78;;;;;;;-146.73;100.00;56421.06;6117677;23;20017;-92
2023/01/21 04:02:18;;;;;;;14.10;4.63;;;;;;;-146.73;100.00;56421.06;6118593;23;20016;-91
2023/01/21 04:04:43;;;;;;;18.05;4.90;;;;;;;-146.73;100.00;56421.06;6135678;23;20022;-90
2023/01/21 04:07:11;;;;;;;23.00;5.70;;;;;;;-146.73;100.00;56421.06;6094919;23;20045;-92
2023/01/21 04:09:50;;;;;;;15.32;5.82;;;;;;;-146.73;100.00;56421.06;6094446;23;20044;-92
2023/01/21 04:15:28;;;;;;;14.23;5.05;;;;;;;-146.73;100.00;56421.06;6119664;23;20013;-90
2023/01/21 04:18:03;;;;;;;17.92;5.50;;;;;;;-146.73;100.00;56421.06;6094707;23;20085;-92
2023/01/21 04:20:34;;;;;;;13.27;4.82;;;;;;;-146.73;100.00;56421.06;6120558;23;20081;-92
2023/01/21 04:23:12;;;;;;;17.23;5.53;;;;;;;-146.73;100.00;56421.06;6115072;23;20065;-91
2023/01/21 04:25:47;;;;;;;16.33;4.85;;;;;;;-146.73;100.00;56421.06;6119160;23;20009;-91
2023/01/21 04:28:13;;;;;;;17.95;5.05;;;;;;;-146.73;100.00;56421.06;6118841;23;20105;-90
2023/01/21 04:30:48;;;;;;;17.40;5.63;;;;;;;-146.73;100.00;56421.06;6094057;23;20037;-91
2023/01/21 04:33:28;;;;;;;;;;;;;;;;;;;;;
2023/01/21 04:36:00;;;;;;;18.27;5.15;;;;;;;-146.73;100.00;56421.06;6117136;23;20762;-91
2023/01/21 04:38:33;;;;;;;19.20;6.30;;;;;;;-146.73;100.00;56421.06;6120562;23;20006;-90
2023/01/21 04:40:59;;;;;;;16.98;5.63;;;;;;;-146.73;100.00;56421.06;6120662;23;20045;-90
2023/01/21 04:43:27;;;;;;;20.77;5.15;;;;;;;-146.73;100.00;56421.06;6121010;23;20005;-92
2023/01/21 04:45:58;;;;;;;19.63;5.25;;;;;;;-146.73;100.00;56421.06;6120682;23;20013;-90
2023/01/21 04:48:23;;;;;;;19.73;4.82;;;;;;;-146.73;100.00;56421.06;6121461;23;20005;-90
2023/01/21 04:50:49;;;;;;;17.50;5.13;;;;;;;-146.73;100.00;56421.06;6094825;23;20045;-90
2023/01/21 04:53:15;;;;;;;16.80;5.47;;;;;;;-146.73;100.00;56421.06;6093957;23;20430;-91
2023/01/21 04:55:40;;;;;;;14.55;5.35;;;;;;;-146.73;100.00;56421.06;6119414;23;20052;-90
2023/01/21 04:58:09;;;;;;;20.20;5.68;;;;;;;-146.73;100.00;56421.06;6094962;23;20014;-91
2023/01/21 05:00:34;;;;;;;16.65;5.38;;;;;;;-146.73;100.00;56421.06;6094659;23;20033;-90
2023/01/21 05:03:00;;;;;;;17.38;5.68;;;;;;;-146.73;100.00;56421.06;6120226;23;20010;-91
2023/01/21 05:05:25;;;;;;;17.58;5.70;;;;;;;-146.73;100.00;56421.06;6108373;23;20422;-91
2023/01/21 05:07:52;;;;;;;20.02;5.70;;;;;;;-146.73;100.00;56421.06;6122379;23;20014;-91
2023/01/21 05:10:18;;;;;;;15.93;5.10;;;;;;;-146.73;100.00;56421.06;6123493;23;20107;-91
2023/01/21 05:12:43;;;;;;;20.75;5.20;;;;;;;-146.73;100.00;56421.06;6148847;23;20009;-90
2023/01/21 05:15:09;;;;;;;18.38;6.15;;;;;;;-146.73;100.00;56421.06;6148066;23;20009;-90
2023/01/21 05:17:35;;;;;;;17.83;5.65;;;;;;;-146.73;100.00;56421.06;6148796;23;20037;-90
2023/01/21 05:20:01;;;;;;;17.80;5.65;;;;;;;-146.73;100.00;56421.06;6122975;23;20032;-90
2023/01/21 05:22:26;;;;;;;18.83;6.03;;;;;;;-146.73;100.00;56421.06;6123271;23;20013;-91
2023/01/21 05:24:54;;;;;;;15.15;5.35;;;;;;;-146.73;100.00;56421.06;6147597;23;20017;-90
2023/01/21 05:27:20;;;;;;;18.17;5.47;;;;;;;-146.73;100.00;56421.06;6149102;23;20008;-91
2023/01/21 05:29:51;;;;;;;16.67;5.28;;;;;;;-146.73;100.00;56421.06;6148899;23;20554;-92
2023/01/21 05:32:17;;;;;;;17.33;4.88;;;;;;;-146.73;100.00;56421.06;6122880;23;20006;-91
2023/01/21 05:34:43;;;;;;;17.65;5.45;;;;;;;-146.73;100.00;56421.06;6122163;23;20032;-89
2023/01/21 05:37:09;;;;;;;15.23;5.07;;;;;;;-146.73;100.00;56421.06;6148940;23;20013;-90
2023/01/21 05:39:34;;;;;;;14.88;5.22;;;;;;;-146.73;100.00;56421.06;6123296;23;20048;-89
2023/01/21 05:42:00;;;;;;;17.77;5.43;;;;;;;-146.73;100.00;56421.06;6147470;23;20439;-90
2023/01/21 05:44:25;;;;;;;20.60;5.95;;;;;;;-146.73;100.00;56421.06;6147834;23;19997;-90
2023/01/21 05:46:51;;;;;;;19.52;5.88;;;;;;;-146.73;100.00;56421.06;6123432;23;20009;-91
2023/01/21 05:49:16;;;;;;;14.10;5.57;;;;;;;-146.73;100.00;56421.06;6150071;23;20339;-91
2023/01/21 05:51:42;;;;;;;14.20;5.63;;;;;;;-146.73;100.00;56421.06;6149701;23;20455;-91
2023/01/21 05:54:07;;;;;;;15.82;5.45;;;;;;;-146.73;100.00;56421.06;6123142;23;20021;-91
2023/01/21 05:56:33;;;;;;;15.35;5.20;;;;;;;-146.73;100.00;56421.06;6149735;23;20667;-91
2023/01/21 05:58:58;;;;;;;15.57;5.38;;;;;;;-146.73;100.00;56421.06;6156081;23;20017;-92
2023/01/21 06:01:24;;;;;;;14.68;5.13;;;;;;;-146.73;100.00;56421.06;6155235;23;20031;-91
2023/01/21 06:03:49;;;;;;;15.75;5.72;;;;;;;-146.73;100.00;56421.06;6119225;23;20017;-91
2023/01/21 06:06:15;;;;;;;17.88;5.68;;;;;;;-146.73;100.00;56421.06;6121690;23;20028;-90
2023/01/21 06:08:40;;;;;;;17.88;5.30;;;;;;;-146.73;100.00;56421.06;6118401;23;20018;-91
2023/01/21 06:14:05;;;;;;;18.02;5.15;;;;;;;-146.73;100.00;56421.06;6117680;23;20013;-90
2023/01/21 06:16:36;;;;;;;17.85;5.25;;;;;;;-146.73;100.00;56421.06;6093657;23;20427;-91
2023/01/21 06:19:02;;;;;;;16.23;5.35;;;;;;;-146.73;100.00;56421.06;6093306;23;20067;-91
2023/01/21 06:21:33;;;;;;;17.55;5.53;;;;;;;-146.73;100.00;56421.06;6117454;23;20022;-91
2023/01/21 06:24:25;;;;;;;16.92;4.95;;;;;;;-146.73;100.00;56421.06;6120325;23;20073;-91
2023/01/21 06:27:00;;;;;;;14.73;4.68;;;;;;;-146.73;100.00;56421.06;6118938;23;20491;-92
2023/01/21 06:29:34;;;;;;;17.40;5.32;;;;;;;-146.73;100.00;56421.06;6093682;23;20006;-91
2023/01/21 06:32:02;;;;;;;14.10;4.80;;;;;;;-146.73;100.00;56421.06;6119433;23;20086;-91
2023/01/21 06:34:30;;;;;;;14.93;5.20;;;;;;;-146.73;100.00;56421.06;6120112;23;20013;-91
2023/01/21 06:36:56;;;;;;;14.57;5.22;;;;;;;-146.73;100.00;56421.06;6094804;23;20002;-92
2023/01/21 06:39:30;;;;;;;15.50;4.82;;;;;;;-146.73;100.00;56421.06;6058687;23;20026;-90
2023/01/21 06:42:08;;;;;;;17.30;5.40;;;;;;;-146.73;100.00;56421.06;6035004;23;20010;-90
2023/01/21 06:44:51;;;;;;;15.20;5.60;;;;;;;-146.73;100.00;56421.06;6059884;23;20019;-90
2023/01/21 06:47:23;;;;;;;16.65;5.25;;;;;;;-146.73;100.00;56421.06;6034920;23;20006;-90
2023/01/21 06:50:01;;;;;;;13.60;4.80;;;;;;;-146.73;100.00;56421.06;6033481;23;20074;-89
2023/01/21 06:52:30;;;;;;;16.92;4.68;;;;;;;-146.73;100.00;56421.06;6034994;23;20496;-90
2023/01/21 06:54:56;;;;;;;13.65;4.82;;;;;;;-146.73;100.00;56421.06;6035311;23;20036;-91
2023/01/21 06:57:22;;;;;;;15.05;4.30;;;;;;;-146.73;100.00;56421.06;6058860;23;20639;-92
2023/01/21 06:59:47;;;;;;;18.33;5.00;;;;;;;-146.73;100.00;56421.06;6057498;23;20022;-91
2023/01/21 07:02:17;;;;;;;14.18;4.60;;;;;;;-146.73;100.00;56421.06;6034112;23;20018;-92
2023/01/21 07:04:48;;;;;;;15.20;4.85;;;;;;;-146.73;100.00;56421.06;6061191;23;20026;-91
2023/01/21 07:07:14;;;;;;;12.10;3.95;;;;;;;-146.73;100.00;56421.06;6034357;23;20025;-91
2023/01/21 07:09:48;;;;;;;17.65;4.57;;;;;;;-146.73;100.00;56421.06;6034536;23;20110;-91
2023/01/21 07:12:15;;;;;;;14.05;4.45;;;;;;;-146.73;100.00;56421.06;6059351;23;20021;-91
2023/01/21 07:14:52;;;;;;;16.38;4.40;;;;;;;-146.73;100.00;56421.06;6058044;23;20472;-91
2023/01/21 07:17:36;;;;;;;14.00;4.28;;;;;;;-146.73;100.00;56421.06;6100206;23;20506;-91
2023/01/21 07:20:08;;;;;;;13.52;4.63;;;;;;;-146.73;100.00;56421.06;6093990;23;20463;-91
2023/01/21 07:22:42;;;;;;;17.70;4.60;;;;;;;-146.73;100.00;56421.06;6119603;23;20044;-91
2023/01/21 07:25:08;;;;;;;11.40;4.03;;;;;;;-146.73;100.00;56421.06;6120585;23;20014;-92
2023/01/21 07:27:36;;;;;;;13.52;4.45;;;;;;;-146.73;100.00;56421.06;6092675;23;20029;-93
2023/01/21 07:30:19;;;;;;;14.93;4.32;;;;;;;-146.73;100.00;56421.06;6118171;23;20009;-91
2023/01/21 07:33:09;;;;;;;14.30;4.22;;;;;;;-146.73;100.00;56421.06;6094142;23;20758;-92
2023/01/21 07:36:02;;;;;;;15.57;4.60;;;;;;;-146.73;100.00;56421.06;6093771;23;20064;-91
2023/01/21 07:38:28;;;;;;;16.65;4.18;;;;;;;-146.73;100.00;56421.06;6093565;23;20335;-92
2023/01/21 07:43:45;;;;;;;13.25;4.18;;;;;;;-146.73;100.00;56421.06;6121412;23;20025;-91
2023/01/21 07:46:53;;;;;;;12.77;4.10;;;;;;;-146.73;100.00;56421.06;6119337;23;20085;-92
2023/01/21 07:50:28;;;;;;;13.52;4.53;;;;;;;-146.73;100.00;56421.06;6002348;23;20023;-92
2023/01/21 07:53:16;;;;;;;12.02;4.35;;;;;;;-146.73;100.00;56421.06;6002417;23;20016;-91
2023/01/21 07:56:13;;;;;;;15.43;4.55;;;;;;;-146.73;100.00;56421.06;6025475;23;20179;-90
2023/01/21 07:58:57;;;;;;;14.48;4.78;;;;;;;-146.73;100.00;56421.06;6022657;23;20034;-92
2023/01/21 08:01:40;;;;;;;13.77;4.68;;;;;;;-146.73;100.00;56421.06;5972439;23;20418;-92
2023/01/21 08:04:32;;;;;;;13.18;4.35;;;;;;;-146.73;100.00;56421.06;5977547;23;20053;-91
2023/01/21 08:07:07;;;;;;;12.27;4.28;;;;;;;-146.73;100.00;56421.06;6018055;23;20020;-91
2023/01/21 08:09:42;;;;;;;15.88;4.63;;;;;;;-146.73;100.00;56421.06;6028180;23;20080;-91
2023/01/21 08:12:11;;;;;;;16.40;5.25;;;;;;;-146.73;100.00;56421.06;6032900;23;20012;-91
2023/01/21 08:15:03;;;;;;;17.67;5.07;;;;;;;-146.73;100.00;56421.06;6032728;23;20034;-92
2023/01/21 08:17:40;;;;;;;16.85;4.50;;;;;;;-146.73;100.00;56421.06;6013170;23;20062;-90
2023/01/21 08:20:10;;;;;;;14.95;5.15;;;;;;;-146.73;100.00;56421.06;6112447;23;20040;-92
2023/01/21 08:22:56;;;;;;;14.57;5.30;;;;;;;-146.73;100.00;56421.06;6134043;23;20018;-92
2023/01/21 08:26:10;;;;;;;20.40;5.07;;;;;;;-146.73;100.00;56421.06;6123949;23;20037;-90
2023/01/21 08:29:00;;;;;;;13.77;4.47;;;;;;;-146.73;100.00;56421.06;6006316;23;20021;-91
2023/01/21 08:31:51;;;;;;;16.08;5.50;;;;;;;-146.73;100.00;56421.06;6028173;23;20015;-92
2023/01/21 08:34:35;;;;;;;15.32;5.30;;;;;;;-146.73;100.00;56421.06;6004407;23;20446;-91
2023/01/21 08:37:12;;;;;;;14.88;4.50;;;;;;;-146.73;100.00;56421.06;6018816;23;20026;-91
2023/01/21 08:39:53;;;;;;;15.43;5.57;;;;;;;-146.73;100.00;56421.06;6003374;23;20548;-92
2023/01/21 08:42:21;;;;;;;16.45;6.10;;;;;;;-146.73;100.00;56421.06;6004202;23;20374;-91
2023/01/21 08:44:55;;;;;;;16.30;5.10;;;;;;;-146.73;100.00;56421.06;6005009;23;20154;-91
2023/01/21 08:47:23;;;;;;;;;;;;;;;-146.73;100.00;56421.06;6031659;23;20018;-91
2023/01/21 08:49:51;;;;;;;16.05;5.45;;;;;;;-146.73;100.00;56421.06;6030062;23;19985;-91
2023/01/21 08:52:49;;;;;;;17.83;4.60;;;;;;;-146.73;100.00;56421.06;6005285;23;20027;-90
2023/01/21 08:55:25;;;;;;;15.30;5.00;;;;;;;-146.73;100.00;56421.06;5969114;23;20399;-89
2023/01/21 08:58:00;;;;;;;16.65;5.45;;;;;;;-146.73;100.00;56421.06;6030647;23;20031;-91
2023/01/21 09:00:57;;;;;;;17.13;4.95;;;;;;;-146.73;100.00;56421.06;6117987;23;20124;-90
2023/01/21 09:03:28;;;;;;;18.23;5.70;;;;;;;-146.73;100.00;56421.06;6122729;23;20088;-91
2023/01/21 09:06:14;;;;;;;15.82;5.10;;;;;;;-146.73;100.00;56421.06;6143952;23;20029;-91
2023/01/21 09:08:44;;;;;;;16.38;5.40;;;;;;;-146.73;100.00;56421.06;6095268;23;20423;-90
2023/01/21 09:11:26;;;;;;;18.05;6.25;;;;;;;-146.73;100.00;56421.06;6094508;23;20025;-91
2023/01/21 09:14:10;;;;;;;18.40;5.45;;;;;;;-146.73;100.00;56421.06;6121637;23;20029;-91
2023/01/21 09:16:36;;;;;;;21.35;6.25;;;;;;;-146.73;100.00;56421.06;6119465;23;20526;-91
2023/01/21 09:19:04;;;;;;;17.73;6.20;;;;;;;-146.73;100.00;56421.06;6094752;23;20048;-91
2023/01/21 09:22:08;;;;;;;19.33;6.30;;;;;;;-146.73;100.00;56421.06;6095558;23;20320;-90
2023/01/21 09:24:34;;;;;;;18.92;7.05;;;;;;;-146.73;100.00;56421.06;6090264;23;20018;-90
2023/01/21 09:27:06;;;;;;;22.42;7.60;;;;;;;-146.73;100.00;56421.06;6121162;23;20008;-90
2023/01/21 09:29:35;;;;;;;23.30;7.85;;;;;;;-146.73;100.00;56421.06;6094407;23;20021;-91
2023/01/21 09:32:04;;;;;;;28.65;8.75;;;;;;;-146.73;100.00;56421.06;6119059;23;20017;-92
2023/01/21 09:34:47;;;;;;;24.73;7.40;;;;;;;-146.73;100.00;56421.06;6095004;23;20025;-91
2023/01/21 09:37:13;;;;;;;29.42;8.45;;;;;;;-146.73;100.00;56421.06;6095773;23;20025;-92
2023/01/21 09:40:03;;;;;;;22.73;7.80;;;;;;;-146.73;100.00;56421.06;6094837;23;20431;-91
2023/01/21 09:42:41;;;;;;;22.50;7.47;;;;;;;-146.73;100.00;56421.06;6093751;23;20021;-91
2023/01/21 09:45:16;;;;;;;22.20;7.35;;;;;;;-146.73;100.00;56421.06;6093783;23;20132;-90
2023/01/21 09:47:49;;;;;;;20.38;6.55;;;;;;;-146.73;100.00;56421.06;6094115;23;20021;-91
2023/01/21 09:50:44;;;;;;;22.20;7.00;;;;;;;-146.73;100.00;56421.06;6093010;23;20033;-92
2023/01/21 09:53:36;;;;;;;21.55;7.38;;;;;;;-146.73;100.00;56421.06;6092034;23;20012;-92
2023/01/21 09:59:32;;;;;;;27.45;7.78;;;;;;;-146.73;100.00;56421.06;6105546;23;20018;-92
2023/01/21 10:02:26;;;;;;;20.13;7.63;;;;;;;-146.73;100.00;56421.06;6085431;23;20032;-91
2023/01/21 10:05:43;;;;;;;16.80;6.97;;;;;;;-146.73;100.00;56421.06;6094442;23;20025;-91
2023/01/21 10:09:00;;;;;;;21.50;7.22;;;;;;;-146.73;100.00;56421.06;6125131;23;20017;-92
2023/01/21 10:12:08;;;;;;;22.75;8.23;;;;;;;-146.73;100.00;56421.06;6151416;23;20002;-92
2023/01/21 10:14:58;;;;;;;21.92;7.45;;;;;;;-146.73;100.00;56421.06;6148656;23;20064;-92
2023/01/21 10:17:50;;;;;;;22.05;8.10;;;;;;;-146.73;100.00;56421.06;6152302;23;20013;-92
2023/01/21 10:20:34;;;;;;;26.00;8.13;;;;;;;-146.73;100.00;56421.06;6151810;23;20021;-92
2023/01/21 10:23:15;;;;;;;;;;;;;;;-146.73;100.00;56421.06;6167753;23;20017;-93
2023/01/21 10:25:41;;;;;;;22.52;7.13;;;;;;;-146.73;100.00;56421.06;6146318;23;19904;-91
2023/01/21 10:28:29;;;;;;;20.08;7.68;;;;;;;-146.73;100.00;56421.06;6151777;23;20489;-93
2023/01/21 10:31:49;;;;;;;21.02;7.75;;;;;;;-146.73;100.00;56421.06;6121607;23;20005;-93
2023/01/21 10:34:22;;;;;;;17.58;7.18;;;;;;;-146.73;100.00;56421.06;6086461;23;20022;-92
2023/01/21 10:37:00;;;;;;;17.27;6.82;;;;;;;-146.73;100.00;56421.06;6082656;23;20025;-90
2023/01/21 10:39:53;;;;;;;24.40;8.07;;;;;;;-146.73;100.00;56421.06;6088710;23;20070;-91
2023/01/21 10:42:57;;;;;;;18.15;7.47;;;;;;;-146.73;100.00;56421.06;6087428;23;20060;-90
2023/01/21 10:46:16;;;;;;;23.30;7.43;;;;;;;-146.73;100.00;56421.06;6087601;23;20017;-91
2023/01/21 10:48:57;;;;;;;19.88;7.50;;;;;;;-146.73;100.00;56421.06;5971171;24;20115;-91
2023/01/21 10:52:07;;;;;;;20.40;7.25;;;;;;;-146.73;100.00;56421.06;5947181;24;20034;-91
2023/01/21 10:55:21;;;;;;;24.17;8.38;;;;;;;-146.73;100.00;56421.06;5946634;24;20024;-91
2023/01/21 10:57:59;;;;;;;;;;;;;;;-146.73;100.00;56421.06;5947915;24;20019;-92
2023/01/21 11:00:51;;;;;;;18.73;7.07;;;;;;;-146.73;100.00;56421.06;5949546;24;19939;-91
2023/01/21 11:03:40;;;;;;;22.52;7.13;;;;;;;-146.73;100.00;56421.06;5948047;24;20016;-91
2023/01/21 11:06:36;;;;;;;21.25;8.02;;;;;;;-146.73;100.00;56421.06;5947836;24;20096;-93
2023/01/21 11:09:05;;;;;;;21.05;6.78;;;;;;;-146.73;100.00;56421.06;5972535;23;20027;-89
2023/01/21 11:11:39;;;;;;;21.83;7.05;;;;;;;-146.73;100.00;56421.06;5998909;23;20020;-92
2023/01/21 11:14:04;;;;;;;;;;;;;;;-146.73;100.00;56421.06;5976059;23;20027;-92
2023/01/21 11:16:39;;;;;;;18.88;7.05;;;;;;;-146.73;100.00;56421.06;5976248;23;20010;-92
2023/01/21 11:19:09;;;;;;;20.05;7.25;;;;;;;-146.73;100.00;56421.06;5975288;23;20011;-91
2023/01/21 11:22:02;;;;;;;21.75;8.35;;;;;;;-146.73;100.00;56421.06;5976662;23;20492;-92
2023/01/21 11:24:47;;;;;;;22.60;8.02;;;;;;;-146.73;100.00;56421.06;6011363;23;20463;-92
2023/01/21 11:27:38;;;;;;;23.45;8.02;;;;;;;-146.73;100.00;56421.06;6148513;23;20024;-91
2023/01/21 11:30:06;;;;;;;20.77;8.48;;;;;;;-146.73;100.00;56421.06;6148493;23;20072;-91
2023/01/21 11:32:32;;;;;;;24.73;7.32;;;;;;;-146.73;100.00;56421.06;6148656;23;20060;-91
2023/01/21 11:35:10;;;;;;;23.55;7.53;;;;;;;-146.73;100.00;56421.06;6123335;23;20100;-92
2023/01/21 11:37:49;;;;;;;19.85;7.78;;;;;;;-146.73;100.00;56421.06;6125672;23;20056;-94
2023/01/21 11:40:23;;;;;;;19.77;8.13;;;;;;;-146.73;100.00;56421.06;6123485;23;20033;-91
2023/01/21 11:42:52;;;;;;;21.48;7.57;;;;;;;-146.73;100.00;56421.06;6126523;23;20021;-92
2023/01/21 11:45:35;;;;;;;22.77;7.80;;;;;;;-146.73;100.00;56421.06;6126163;23;20020;-93
2023/01/21 11:48:13;;;;;;;;;;;;;;;-146.73;100.00;56421.06;6126452;23;20018;-93
2023/01/21 11:50:39;;;;;;;17.63;7.38;;;;;;;-146.73;100.00;56421.06;6125522;23;19912;-91
2023/01/21 11:53:13;;;;;;;22.90;8.50;;;;;;;-146.73;100.00;56421.06;6125395;23;20490;-92
2023/01/21 11:55:55;;;;;;;21.73;8.40;;;;;;;-146.73;100.00;56421.06;6125313;23;20012;-93
2023/01/21 11:58:21;;;;;;;21.80;7.70;;;;;;;-146.73;100.00;56421.06;6150990;23;20009;-91
2023/01/21 12:00:52;;;;;;;22.20;8.55;;;;;;;-146.73;100.00;56421.06;6149341;23;20120;-92
2023/01/21 12:03:33;;;;;;;25.75;9.25;;;;;;;-146.73;100.00;56421.06;6127309;23;20013;-93
2023/01/21 12:06:08;;;;;;;21.80;7.88;;;;;;;-146.73;100.00;56421.06;6121500;23;20116;-93